sensor_id;sensor_type;location;lat;lon;timestamp;pressure;altitude;pressure_sealevel;temperature;humidity
53300;BME280;39187;48.476;8.310;2022-07-10T00:01:51;91991.84;;;14.37;85.99
53300;BME280;39187;48.476;8.310;2022-07-10T00:04:17;91998.06;;;14.31;85.72
53300;BME280;39187;48.476;8.310;2022-07-10T00:06:44;91991.00;;;14.57;84.12
53300;BME280;39187;48.476;8.310;2022-07-10T00:09:13;91993.09;;;14.49;83.94
53300;BME280;39187;48.476;8.310;2022-07-10T00:11:39;91994.72;;;14.27;84.39
53300;BME280;39187;48.476;8.310;2022-07-10T00:14:05;91989.03;;;14.25;84.20
53300;BME280;39187;48.476;8.310;2022-07-10T00:16:30;91993.88;;;14.30;84.37
53300;BME280;39187;48.476;8.310;2022-07-10T00:18:56;91992.78;;;14.11;85.19
53300;BME280;39187;48.476;8.310;2022-07-10T00:21:21;92007.00;;;14.08;85.66
53300;BME280;39187;48.476;8.310;2022-07-10T00:23:47;91982.81;;;14.12;85.01
53300;BME280;39187;48.476;8.310;2022-07-10T00:26:12;91986.66;;;14.11;85.08
53300;BME280;39187;48.476;8.310;2022-07-10T00:28:38;91985.09;;;14.13;84.80
53300;BME280;39187;48.476;8.310;2022-07-10T00:31:04;91988.88;;;13.96;86.10
53300;BME280;39187;48.476;8.310;2022-07-10T00:33:29;91989.69;;;14.13;85.45
53300;BME280;39187;48.476;8.310;2022-07-10T00:36:00;91990.28;;;14.20;85.10
53300;BME280;39187;48.476;8.310;2022-07-10T00:38:26;91988.63;;;14.26;84.91
53300;BME280;39187;48.476;8.310;2022-07-10T00:40:51;91985.25;;;14.22;85.59
53300;BME280;39187;48.476;8.310;2022-07-10T00:43:17;91988.94;;;14.28;85.56
53300;BME280;39187;48.476;8.310;2022-07-10T00:45:42;91996.41;;;14.21;85.62
53300;BME280;39187;48.476;8.310;2022-07-10T00:48:08;91990.81;;;14.31;85.17
53300;BME280;39187;48.476;8.310;2022-07-10T00:50:34;91980.56;;;14.46;84.25
53300;BME280;39187;48.476;8.310;2022-07-10T00:53:00;91979.56;;;14.20;85.43
53300;BME280;39187;48.476;8.310;2022-07-10T00:55:28;91982.25;;;14.36;84.35
53300;BME280;39187;48.476;8.310;2022-07-10T00:57:54;91983.59;;;14.28;84.97
53300;BME280;39187;48.476;8.310;2022-07-10T01:00:20;91976.41;;;14.25;84.92
53300;BME280;39187;48.476;8.310;2022-07-10T01:02:47;91977.16;;;14.26;84.92
53300;BME280;39187;48.476;8.310;2022-07-10T01:05:12;91968.88;;;14.20;85.15
53300;BME280;39187;48.476;8.310;2022-07-10T01:07:39;91963.66;;;14.13;85.68
53300;BME280;39187;48.476;8.310;2022-07-10T01:10:05;91961.75;;;14.14;85.64
53300;BME280;39187;48.476;8.310;2022-07-10T01:12:31;91964.66;;;14.39;84.21
53300;BME280;39187;48.476;8.310;2022-07-10T01:14:56;91971.03;;;14.25;84.53
53300;BME280;39187;48.476;8.310;2022-07-10T01:17:24;91959.84;;;14.30;84.03
53300;BME280;39187;48.476;8.310;2022-07-10T01:19:50;91961.09;;;14.26;84.29
53300;BME280;39187;48.476;8.310;2022-07-10T01:22:16;91958.41;;;14.26;84.31
53300;BME280;39187;48.476;8.310;2022-07-10T01:24:42;91954.53;;;14.11;84.64
53300;BME280;39187;48.476;8.310;2022-07-10T01:27:07;91954.63;;;14.23;84.30
53300;BME280;39187;48.476;8.310;2022-07-10T01:29:34;91953.78;;;14.10;85.00
53300;BME280;39187;48.476;8.310;2022-07-10T01:32:00;91949.53;;;14.13;84.86
53300;BME280;39187;48.476;8.310;2022-07-10T01:34:27;91954.28;;;14.05;85.39
53300;BME280;39187;48.476;8.310;2022-07-10T01:36:53;91947.41;;;13.88;86.41
53300;BME280;39187;48.476;8.310;2022-07-10T01:39:18;91935.94;;;13.87;86.56
53300;BME280;39187;48.476;8.310;2022-07-10T01:41:44;91944.19;;;14.13;85.23
53300;BME280;39187;48.476;8.310;2022-07-10T01:44:09;91954.09;;;13.96;86.14
53300;BME280;39187;48.476;8.310;2022-07-10T01:46:35;91950.19;;;14.00;86.59
53300;BME280;39187;48.476;8.310;2022-07-10T01:49:01;91950.09;;;14.04;86.25
53300;BME280;39187;48.476;8.310;2022-07-10T01:51:27;91952.59;;;13.95;86.86
53300;BME280;39187;48.476;8.310;2022-07-10T01:53:53;91958.88;;;13.88;87.43
53300;BME280;39187;48.476;8.310;2022-07-10T01:56:18;91956.09;;;13.92;87.32
53300;BME280;39187;48.476;8.310;2022-07-10T01:58:44;91956.47;;;14.10;86.41
53300;BME280;39187;48.476;8.310;2022-07-10T02:01:10;91948.31;;;13.97;87.43
53300;BME280;39187;48.476;8.310;2022-07-10T02:03:36;91958.38;;;13.93;87.59
53300;BME280;39187;48.476;8.310;2022-07-10T02:06:20;91963.78;;;13.90;87.88
53300;BME280;39187;48.476;8.310;2022-07-10T02:08:46;91962.66;;;14.07;86.97
53300;BME280;39187;48.476;8.310;2022-07-10T02:11:12;91965.00;;;14.21;86.26
53300;BME280;39187;48.476;8.310;2022-07-10T02:13:38;91967.44;;;14.32;85.62
53300;BME280;39187;48.476;8.310;2022-07-10T02:16:04;91960.25;;;14.29;85.82
53300;BME280;39187;48.476;8.310;2022-07-10T02:18:29;91965.41;;;14.39;85.21
53300;BME280;39187;48.476;8.310;2022-07-10T02:20:55;91964.69;;;14.35;85.18
53300;BME280;39187;48.476;8.310;2022-07-10T02:23:21;91966.94;;;14.37;85.00
53300;BME280;39187;48.476;8.310;2022-07-10T02:25:46;91955.66;;;14.62;83.76
53300;BME280;39187;48.476;8.310;2022-07-10T02:28:12;91954.34;;;14.37;84.74
53300;BME280;39187;48.476;8.310;2022-07-10T02:30:38;91960.59;;;14.31;85.03
53300;BME280;39187;48.476;8.310;2022-07-10T02:33:03;91957.13;;;13.98;86.54
53300;BME280;39187;48.476;8.310;2022-07-10T02:35:29;91958.72;;;14.12;85.84
53300;BME280;39187;48.476;8.310;2022-07-10T02:37:55;91954.53;;;14.11;85.82
53300;BME280;39187;48.476;8.310;2022-07-10T02:40:20;91950.03;;;14.08;85.90
53300;BME280;39187;48.476;8.310;2022-07-10T02:42:46;91945.91;;;14.03;86.48
53300;BME280;39187;48.476;8.310;2022-07-10T02:45:11;91939.69;;;13.90;87.21
53300;BME280;39187;48.476;8.310;2022-07-10T02:47:37;91941.28;;;13.87;87.55
53300;BME280;39187;48.476;8.310;2022-07-10T02:50:03;91943.41;;;13.60;89.18
53300;BME280;39187;48.476;8.310;2022-07-10T02:52:28;91944.69;;;14.08;86.58
53300;BME280;39187;48.476;8.310;2022-07-10T02:54:56;91949.59;;;14.09;86.14
53300;BME280;39187;48.476;8.310;2022-07-10T02:57:22;91946.66;;;14.03;86.76
53300;BME280;39187;48.476;8.310;2022-07-10T02:59:48;91947.41;;;13.88;88.37
53300;BME280;39187;48.476;8.310;2022-07-10T03:02:13;91944.22;;;13.93;88.19
53300;BME280;39187;48.476;8.310;2022-07-10T03:04:39;91932.09;;;13.88;88.92
53300;BME280;39187;48.476;8.310;2022-07-10T03:07:05;91934.59;;;13.95;88.58
53300;BME280;39187;48.476;8.310;2022-07-10T03:09:30;91937.47;;;14.04;88.24
53300;BME280;39187;48.476;8.310;2022-07-10T03:11:56;91933.06;;;13.78;90.64
53300;BME280;39187;48.476;8.310;2022-07-10T03:14:21;91936.75;;;13.68;91.84
53300;BME280;39187;48.476;8.310;2022-07-10T03:16:47;91933.09;;;13.58;93.67
53300;BME280;39187;48.476;8.310;2022-07-10T03:19:12;91937.03;;;13.54;94.92
53300;BME280;39187;48.476;8.310;2022-07-10T03:21:38;91931.63;;;13.38;97.60
53300;BME280;39187;48.476;8.310;2022-07-10T03:24:03;91927.09;;;13.35;97.65
53300;BME280;39187;48.476;8.310;2022-07-10T03:26:29;91931.41;;;13.29;99.16
53300;BME280;39187;48.476;8.310;2022-07-10T03:28:55;91939.78;;;13.31;99.78
53300;BME280;39187;48.476;8.310;2022-07-10T03:31:22;91938.06;;;13.20;100.00
53300;BME280;39187;48.476;8.310;2022-07-10T03:33:48;91935.41;;;13.20;100.00
53300;BME280;39187;48.476;8.310;2022-07-10T03:36:14;91936.41;;;13.27;100.00
53300;BME280;39187;48.476;8.310;2022-07-10T03:38:39;91934.91;;;13.25;100.00
53300;BME280;39187;48.476;8.310;2022-07-10T03:41:05;91934.00;;;13.32;100.00
53300;BME280;39187;48.476;8.310;2022-07-10T03:43:31;91937.31;;;13.40;100.00
53300;BME280;39187;48.476;8.310;2022-07-10T03:45:57;91939.34;;;13.12;100.00
53300;BME280;39187;48.476;8.310;2022-07-10T03:48:23;91936.56;;;13.39;100.00
53300;BME280;39187;48.476;8.310;2022-07-10T03:50:50;91931.16;;;13.23;100.00
53300;BME280;39187;48.476;8.310;2022-07-10T03:53:16;91936.38;;;13.30;100.00
53300;BME280;39187;48.476;8.310;2022-07-10T03:55:42;91936.91;;;13.21;100.00
53300;BME280;39187;48.476;8.310;2022-07-10T03:58:08;91931.69;;;13.34;100.00
53300;BME280;39187;48.476;8.310;2022-07-10T04:00:33;91931.22;;;13.19;100.00
53300;BME280;39187;48.476;8.310;2022-07-10T04:03:02;91934.91;;;13.25;100.00
53300;BME280;39187;48.476;8.310;2022-07-10T04:05:28;91923.28;;;13.16;100.00
53300;BME280;39187;48.476;8.310;2022-07-10T04:07:55;91924.69;;;13.20;100.00
53300;BME280;39187;48.476;8.310;2022-07-10T04:10:23;91934.16;;;13.05;100.00
53300;BME280;39187;48.476;8.310;2022-07-10T04:12:49;91934.91;;;13.45;100.00
53300;BME280;39187;48.476;8.310;2022-07-10T04:15:15;91925.69;;;13.66;100.00
53300;BME280;39187;48.476;8.310;2022-07-10T04:17:41;91919.91;;;14.03;97.53
53300;BME280;39187;48.476;8.310;2022-07-10T04:20:07;91921.66;;;14.10;97.01
53300;BME280;39187;48.476;8.310;2022-07-10T04:22:33;91916.91;;;14.01;97.28
53300;BME280;39187;48.476;8.310;2022-07-10T04:24:59;91917.63;;;14.83;92.77
53300;BME280;39187;48.476;8.310;2022-07-10T04:27:24;91913.69;;;14.88;90.88
53300;BME280;39187;48.476;8.310;2022-07-10T04:29:50;91920.19;;;15.03;88.62
53300;BME280;39187;48.476;8.310;2022-07-10T04:32:16;91910.94;;;14.75;89.89
53300;BME280;39187;48.476;8.310;2022-07-10T04:34:42;91926.13;;;14.33;91.98
53300;BME280;39187;48.476;8.310;2022-07-10T04:37:07;91926.03;;;14.20;92.36
53300;BME280;39187;48.476;8.310;2022-07-10T04:39:34;91930.09;;;14.09;93.20
53300;BME280;39187;48.476;8.310;2022-07-10T04:42:01;91931.44;;;14.17;93.15
53300;BME280;39187;48.476;8.310;2022-07-10T04:44:27;91928.34;;;14.02;94.41
53300;BME280;39187;48.476;8.310;2022-07-10T04:46:52;91920.38;;;13.82;95.06
53300;BME280;39187;48.476;8.310;2022-07-10T04:49:18;91927.59;;;14.01;94.33
53300;BME280;39187;48.476;8.310;2022-07-10T04:51:44;91933.13;;;13.94;94.79
53300;BME280;39187;48.476;8.310;2022-07-10T04:54:09;91935.06;;;13.74;95.34
53300;BME280;39187;48.476;8.310;2022-07-10T04:56:35;91927.66;;;13.82;95.04
53300;BME280;39187;48.476;8.310;2022-07-10T04:59:00;91924.47;;;13.87;94.51
53300;BME280;39187;48.476;8.310;2022-07-10T05:01:26;91927.66;;;13.82;94.44
53300;BME280;39187;48.476;8.310;2022-07-10T05:03:51;91923.91;;;13.95;93.23
53300;BME280;39187;48.476;8.310;2022-07-10T05:06:17;91928.47;;;13.79;93.82
53300;BME280;39187;48.476;8.310;2022-07-10T05:08:43;91931.78;;;14.02;92.69
53300;BME280;39187;48.476;8.310;2022-07-10T05:11:09;91933.88;;;13.95;91.99
53300;BME280;39187;48.476;8.310;2022-07-10T05:13:35;91936.69;;;13.88;92.80
53300;BME280;39187;48.476;8.310;2022-07-10T05:16:00;91946.44;;;13.78;92.46
53300;BME280;39187;48.476;8.310;2022-07-10T05:18:26;91937.56;;;13.65;93.48
53300;BME280;39187;48.476;8.310;2022-07-10T05:20:51;91950.06;;;13.52;94.55
53300;BME280;39187;48.476;8.310;2022-07-10T05:23:17;91942.81;;;13.88;91.84
53300;BME280;39187;48.476;8.310;2022-07-10T05:25:43;91944.78;;;13.84;92.38
53300;BME280;39187;48.476;8.310;2022-07-10T05:28:08;91942.75;;;13.72;92.06
53300;BME280;39187;48.476;8.310;2022-07-10T05:30:34;91938.72;;;14.00;90.75
53300;BME280;39187;48.476;8.310;2022-07-10T05:33:00;91932.06;;;14.40;89.08
53300;BME280;39187;48.476;8.310;2022-07-10T05:35:26;91940.69;;;15.09;84.71
53300;BME280;39187;48.476;8.310;2022-07-10T05:37:52;91931.50;;;16.31;80.38
53300;BME280;39187;48.476;8.310;2022-07-10T05:40:18;91930.56;;;16.72;75.30
53300;BME280;39187;48.476;8.310;2022-07-10T05:42:44;91926.06;;;17.60;71.95
53300;BME280;39187;48.476;8.310;2022-07-10T05:45:11;91929.25;;;17.46;70.69
53300;BME280;39187;48.476;8.310;2022-07-10T05:47:37;91932.88;;;17.74;68.63
53300;BME280;39187;48.476;8.310;2022-07-10T05:50:06;91932.69;;;17.46;69.68
53300;BME280;39187;48.476;8.310;2022-07-10T05:52:33;91939.84;;;18.55;66.80
53300;BME280;39187;48.476;8.310;2022-07-10T05:55:01;91928.41;;;18.41;65.19
53300;BME280;39187;48.476;8.310;2022-07-10T05:57:34;91934.44;;;18.55;64.14
53300;BME280;39187;48.476;8.310;2022-07-10T06:00:10;91938.22;;;18.26;64.22
53300;BME280;39187;48.476;8.310;2022-07-10T06:02:42;91941.84;;;18.32;64.12
53300;BME280;39187;48.476;8.310;2022-07-10T06:05:12;91935.75;;;18.41;63.52
53300;BME280;39187;48.476;8.310;2022-07-10T06:07:40;91941.72;;;18.85;61.67
53300;BME280;39187;48.476;8.310;2022-07-10T06:10:07;91933.81;;;19.27;60.43
53300;BME280;39187;48.476;8.310;2022-07-10T06:12:34;91941.78;;;19.31;59.60
53300;BME280;39187;48.476;8.310;2022-07-10T06:15:03;91939.53;;;19.38;60.34
53300;BME280;39187;48.476;8.310;2022-07-10T06:17:30;91941.94;;;19.36;59.68
53300;BME280;39187;48.476;8.310;2022-07-10T06:19:56;91944.91;;;19.93;58.61
53300;BME280;39187;48.476;8.310;2022-07-10T06:22:24;91940.91;;;20.96;55.16
53300;BME280;39187;48.476;8.310;2022-07-10T06:25:14;91935.69;;;21.16;53.61
53300;BME280;39187;48.476;8.310;2022-07-10T06:27:41;91949.91;;;20.69;53.74
53300;BME280;39187;48.476;8.310;2022-07-10T06:30:07;91951.59;;;21.14;52.80
53300;BME280;39187;48.476;8.310;2022-07-10T06:32:33;91951.09;;;20.68;53.58
53300;BME280;39187;48.476;8.310;2022-07-10T06:34:59;91956.31;;;20.81;53.19
53300;BME280;39187;48.476;8.310;2022-07-10T06:37:24;91959.72;;;20.67;53.06
53300;BME280;39187;48.476;8.310;2022-07-10T06:39:50;91957.00;;;18.08;60.43
53300;BME280;39187;48.476;8.310;2022-07-10T06:42:16;91967.34;;;18.40;61.84
53300;BME280;39187;48.476;8.310;2022-07-10T06:44:43;91964.13;;;19.31;58.68
53300;BME280;39187;48.476;8.310;2022-07-10T06:47:09;91960.84;;;19.73;56.26
53300;BME280;39187;48.476;8.310;2022-07-10T06:49:54;91961.56;;;19.00;58.38
53300;BME280;39187;48.476;8.310;2022-07-10T06:52:19;91969.19;;;18.53;59.31
53300;BME280;39187;48.476;8.310;2022-07-10T06:54:46;91969.31;;;18.09;61.85
53300;BME280;39187;48.476;8.310;2022-07-10T06:57:12;91965.34;;;18.01;63.35
53300;BME280;39187;48.476;8.310;2022-07-10T06:59:38;91969.38;;;17.96;61.83
53300;BME280;39187;48.476;8.310;2022-07-10T07:02:04;91966.53;;;18.00;62.57
53300;BME280;39187;48.476;8.310;2022-07-10T07:04:30;91970.56;;;17.95;62.33
53300;BME280;39187;48.476;8.310;2022-07-10T07:06:55;91973.72;;;18.56;61.81
53300;BME280;39187;48.476;8.310;2022-07-10T07:09:21;91977.34;;;19.38;58.91
53300;BME280;39187;48.476;8.310;2022-07-10T07:11:47;91968.16;;;19.36;60.41
53300;BME280;39187;48.476;8.310;2022-07-10T07:14:13;91963.66;;;19.14;58.68
53300;BME280;39187;48.476;8.310;2022-07-10T07:16:38;91962.78;;;19.27;58.57
53300;BME280;39187;48.476;8.310;2022-07-10T07:19:08;91962.69;;;18.72;60.18
53300;BME280;39187;48.476;8.310;2022-07-10T07:21:35;91963.16;;;18.09;61.85
53300;BME280;39187;48.476;8.310;2022-07-10T07:24:20;91969.13;;;20.29;57.75
53300;BME280;39187;48.476;8.310;2022-07-10T07:26:46;91959.25;;;20.17;54.29
53300;BME280;39187;48.476;8.310;2022-07-10T07:29:18;91961.97;;;20.92;52.62
53300;BME280;39187;48.476;8.310;2022-07-10T07:31:44;91961.97;;;21.40;51.29
53300;BME280;39187;48.476;8.310;2022-07-10T07:34:10;91961.34;;;21.45;49.96
53300;BME280;39187;48.476;8.310;2022-07-10T07:36:36;91972.16;;;21.30;51.31
53300;BME280;39187;48.476;8.310;2022-07-10T07:39:02;91957.09;;;21.29;50.64
53300;BME280;39187;48.476;8.310;2022-07-10T07:41:28;91958.06;;;21.41;50.81
53300;BME280;39187;48.476;8.310;2022-07-10T07:43:53;91951.50;;;21.09;49.26
53300;BME280;39187;48.476;8.310;2022-07-10T07:46:19;91959.47;;;21.36;50.14
53300;BME280;39187;48.476;8.310;2022-07-10T07:48:45;91968.09;;;20.27;51.45
53300;BME280;39187;48.476;8.310;2022-07-10T07:51:11;91960.63;;;20.03;53.39
53300;BME280;39187;48.476;8.310;2022-07-10T07:53:37;91965.78;;;20.44;52.99
53300;BME280;39187;48.476;8.310;2022-07-10T07:56:03;91964.03;;;18.76;55.50
53300;BME280;39187;48.476;8.310;2022-07-10T07:58:28;91966.81;;;19.13;54.85
53300;BME280;39187;48.476;8.310;2022-07-10T08:00:55;91970.28;;;19.32;54.53
53300;BME280;39187;48.476;8.310;2022-07-10T08:03:22;91961.09;;;19.93;53.28
53300;BME280;39187;48.476;8.310;2022-07-10T08:05:48;91958.59;;;20.31;51.87
53300;BME280;39187;48.476;8.310;2022-07-10T08:08:14;91964.50;;;20.21;51.92
53300;BME280;39187;48.476;8.310;2022-07-10T08:10:40;91965.47;;;19.72;54.03
53300;BME280;39187;48.476;8.310;2022-07-10T08:13:05;91959.50;;;19.68;54.40
53300;BME280;39187;48.476;8.310;2022-07-10T08:15:32;91954.84;;;19.69;54.63
53300;BME280;39187;48.476;8.310;2022-07-10T08:18:00;91954.50;;;19.85;54.30
53300;BME280;39187;48.476;8.310;2022-07-10T08:20:26;91949.94;;;20.18;53.23
53300;BME280;39187;48.476;8.310;2022-07-10T08:22:52;91949.00;;;20.30;52.17
53300;BME280;39187;48.476;8.310;2022-07-10T08:25:19;91949.94;;;20.18;52.14
53300;BME280;39187;48.476;8.310;2022-07-10T08:27:45;91957.47;;;20.05;51.40
53300;BME280;39187;48.476;8.310;2022-07-10T08:30:12;91943.25;;;19.86;51.04
53300;BME280;39187;48.476;8.310;2022-07-10T08:32:38;91946.41;;;19.85;52.09
53300;BME280;39187;48.476;8.310;2022-07-10T08:35:05;91939.06;;;19.40;53.00
53300;BME280;39187;48.476;8.310;2022-07-10T08:37:38;91942.22;;;19.84;52.39
53300;BME280;39187;48.476;8.310;2022-07-10T08:40:05;91941.31;;;19.87;51.98
53300;BME280;39187;48.476;8.310;2022-07-10T08:42:32;91945.22;;;19.04;53.31
53300;BME280;39187;48.476;8.310;2022-07-10T08:44:58;91949.84;;;19.03;53.32
53300;BME280;39187;48.476;8.310;2022-07-10T08:47:24;91952.50;;;18.76;54.58
53300;BME280;39187;48.476;8.310;2022-07-10T08:49:51;91950.00;;;19.27;53.60
53300;BME280;39187;48.476;8.310;2022-07-10T08:52:33;91956.47;;;19.30;53.47
53300;BME280;39187;48.476;8.310;2022-07-10T08:54:59;91955.84;;;18.98;53.25
53300;BME280;39187;48.476;8.310;2022-07-10T08:57:25;91950.19;;;19.42;51.48
53300;BME280;39187;48.476;8.310;2022-07-10T08:59:51;91945.09;;;19.53;50.75
53300;BME280;39187;48.476;8.310;2022-07-10T09:02:17;91944.59;;;19.91;50.73
53300;BME280;39187;48.476;8.310;2022-07-10T09:04:42;91937.25;;;20.42;48.46
53300;BME280;39187;48.476;8.310;2022-07-10T09:07:08;91936.72;;;20.62;48.28
53300;BME280;39187;48.476;8.310;2022-07-10T09:10:04;91944.53;;;20.18;49.26
53300;BME280;39187;48.476;8.310;2022-07-10T09:12:57;91943.13;;;20.32;48.01
53300;BME280;39187;48.476;8.310;2022-07-10T09:15:26;91937.00;;;20.64;47.18
53300;BME280;39187;48.476;8.310;2022-07-10T09:18:01;91944.41;;;20.88;46.63
53300;BME280;39187;48.476;8.310;2022-07-10T09:20:31;91938.56;;;20.05;48.38
53300;BME280;39187;48.476;8.310;2022-07-10T09:22:59;91939.25;;;20.24;48.75
53300;BME280;39187;48.476;8.310;2022-07-10T09:25:32;91946.50;;;20.60;48.11
53300;BME280;39187;48.476;8.310;2022-07-10T09:27:59;91951.75;;;20.21;47.77
53300;BME280;39187;48.476;8.310;2022-07-10T09:38:51;91943.19;;;21.89;45.51
53300;BME280;39187;48.476;8.310;2022-07-10T09:41:18;91957.03;;;21.91;44.79
53300;BME280;39187;48.476;8.310;2022-07-10T09:43:49;91947.59;;;21.87;42.57
53300;BME280;39187;48.476;8.310;2022-07-10T09:46:16;91947.44;;;22.05;42.49
53300;BME280;39187;48.476;8.310;2022-07-10T09:48:42;91953.41;;;22.09;43.84
53300;BME280;39187;48.476;8.310;2022-07-10T09:51:09;91956.25;;;21.62;46.93
53300;BME280;39187;48.476;8.310;2022-07-10T09:53:42;91957.34;;;22.37;44.89
53300;BME280;39187;48.476;8.310;2022-07-10T09:58:35;91951.88;;;22.82;42.74
53300;BME280;39187;48.476;8.310;2022-07-10T10:01:03;91951.31;;;22.63;41.47
53300;BME280;39187;48.476;8.310;2022-07-10T10:03:33;91951.97;;;23.07;40.60
53300;BME280;39187;48.476;8.310;2022-07-10T10:06:03;91942.03;;;23.60;40.00
53300;BME280;39187;48.476;8.310;2022-07-10T10:08:32;91939.06;;;24.09;39.23
53300;BME280;39187;48.476;8.310;2022-07-10T10:11:01;91936.31;;;23.57;38.27
53300;BME280;39187;48.476;8.310;2022-07-10T10:13:29;91937.19;;;23.95;38.56
53300;BME280;39187;48.476;8.310;2022-07-10T10:15:57;91935.50;;;23.97;38.94
53300;BME280;39187;48.476;8.310;2022-07-10T10:18:25;91935.28;;;23.35;39.48
53300;BME280;39187;48.476;8.310;2022-07-10T10:20:52;91936.06;;;23.81;38.89
53300;BME280;39187;48.476;8.310;2022-07-10T10:23:20;91931.53;;;23.73;38.29
53300;BME280;39187;48.476;8.310;2022-07-10T10:25:57;91929.13;;;23.54;38.88
53300;BME280;39187;48.476;8.310;2022-07-10T10:28:26;91933.06;;;23.53;39.37
53300;BME280;39187;48.476;8.310;2022-07-10T10:30:56;91929.91;;;24.07;37.20
53300;BME280;39187;48.476;8.310;2022-07-10T10:35:58;91932.03;;;23.97;37.06
53300;BME280;39187;48.476;8.310;2022-07-10T10:38:25;91932.16;;;24.71;36.73
53300;BME280;39187;48.476;8.310;2022-07-10T10:46:53;91932.13;;;24.08;37.92
53300;BME280;39187;48.476;8.310;2022-07-10T10:49:23;91928.75;;;24.76;37.66
53300;BME280;39187;48.476;8.310;2022-07-10T10:52:04;91926.44;;;23.80;38.94
53300;BME280;39187;48.476;8.310;2022-07-10T10:57:22;91935.13;;;22.83;40.55
53300;BME280;39187;48.476;8.310;2022-07-10T10:59:49;91924.91;;;23.53;39.96
53300;BME280;39187;48.476;8.310;2022-07-10T11:02:26;91923.63;;;23.49;39.16
53300;BME280;39187;48.476;8.310;2022-07-10T11:07:56;91929.97;;;22.85;40.89
53300;BME280;39187;48.476;8.310;2022-07-10T11:15:32;91924.53;;;20.91;46.12
53300;BME280;39187;48.476;8.310;2022-07-10T11:20:34;91914.28;;;19.87;48.37
53300;BME280;39187;48.476;8.310;2022-07-10T11:25:42;91925.84;;;20.48;45.73
53300;BME280;39187;48.476;8.310;2022-07-10T11:28:11;91923.59;;;20.37;46.62
53300;BME280;39187;48.476;8.310;2022-07-10T11:33:09;91922.00;;;20.21;46.70
53300;BME280;39187;48.476;8.310;2022-07-10T11:35:35;91919.19;;;20.49;45.71
53300;BME280;39187;48.476;8.310;2022-07-10T11:38:01;91919.50;;;20.74;45.36
53300;BME280;39187;48.476;8.310;2022-07-10T11:40:26;91923.22;;;20.86;45.00
53300;BME280;39187;48.476;8.310;2022-07-10T11:42:54;91926.13;;;19.98;46.63
53300;BME280;39187;48.476;8.310;2022-07-10T11:45:23;91921.81;;;20.25;46.99
53300;BME280;39187;48.476;8.310;2022-07-10T11:47:48;91931.13;;;20.24;47.49
53300;BME280;39187;48.476;8.310;2022-07-10T11:50:14;91919.75;;;20.20;47.16
53300;BME280;39187;48.476;8.310;2022-07-10T11:52:40;91929.25;;;20.06;46.89
53300;BME280;39187;48.476;8.310;2022-07-10T11:55:19;91922.47;;;20.11;46.44
53300;BME280;39187;48.476;8.310;2022-07-10T11:57:45;91930.94;;;20.46;46.88
53300;BME280;39187;48.476;8.310;2022-07-10T12:00:24;91920.00;;;20.40;47.56
53300;BME280;39187;48.476;8.310;2022-07-10T12:02:51;91922.59;;;20.67;46.21
53300;BME280;39187;48.476;8.310;2022-07-10T12:05:50;91920.00;;;20.31;46.38
53300;BME280;39187;48.476;8.310;2022-07-10T12:08:17;91908.66;;;20.60;45.08
53300;BME280;39187;48.476;8.310;2022-07-10T12:10:42;91914.59;;;20.73;45.57
53300;BME280;39187;48.476;8.310;2022-07-10T12:13:13;91921.75;;;20.52;46.19
53300;BME280;39187;48.476;8.310;2022-07-10T12:15:46;91912.78;;;20.37;46.14
53300;BME280;39187;48.476;8.310;2022-07-10T12:18:20;91913.50;;;20.47;46.50
53300;BME280;39187;48.476;8.310;2022-07-10T12:20:46;91922.63;;;20.82;46.17
53300;BME280;39187;48.476;8.310;2022-07-10T12:23:15;91917.44;;;20.36;45.20
53300;BME280;39187;48.476;8.310;2022-07-10T12:25:46;91914.56;;;19.98;45.94
53300;BME280;39187;48.476;8.310;2022-07-10T12:28:13;91914.59;;;20.40;45.35
53300;BME280;39187;48.476;8.310;2022-07-10T12:30:46;91921.88;;;20.16;44.41
53300;BME280;39187;48.476;8.310;2022-07-10T12:33:18;91920.84;;;20.04;47.64
53300;BME280;39187;48.476;8.310;2022-07-10T12:35:46;91917.16;;;20.25;46.23
53300;BME280;39187;48.476;8.310;2022-07-10T12:38:20;91918.09;;;19.62;46.71
53300;BME280;39187;48.476;8.310;2022-07-10T12:40:46;91917.94;;;19.38;47.75
53300;BME280;39187;48.476;8.310;2022-07-10T12:43:12;91920.91;;;19.77;47.66
53300;BME280;39187;48.476;8.310;2022-07-10T12:45:38;91923.03;;;20.24;46.56
53300;BME280;39187;48.476;8.310;2022-07-10T12:48:05;91918.13;;;20.04;47.81
53300;BME280;39187;48.476;8.310;2022-07-10T12:50:33;91927.72;;;20.14;46.38
53300;BME280;39187;48.476;8.310;2022-07-10T12:53:11;91933.09;;;19.63;47.94
53300;BME280;39187;48.476;8.310;2022-07-10T12:55:40;91929.44;;;19.93;47.18
53300;BME280;39187;48.476;8.310;2022-07-10T12:58:08;91924.84;;;20.18;47.57
53300;BME280;39187;48.476;8.310;2022-07-10T13:00:35;91934.13;;;19.75;48.23
53300;BME280;39187;48.476;8.310;2022-07-10T13:03:06;91941.31;;;19.87;47.52
53300;BME280;39187;48.476;8.310;2022-07-10T13:05:42;91925.66;;;19.91;47.57
53300;BME280;39187;48.476;8.310;2022-07-10T13:08:16;91934.19;;;20.08;47.63
53300;BME280;39187;48.476;8.310;2022-07-10T13:10:48;91935.81;;;20.32;45.93
53300;BME280;39187;48.476;8.310;2022-07-10T13:13:14;91925.66;;;20.00;46.09
53300;BME280;39187;48.476;8.310;2022-07-10T13:15:40;91931.75;;;19.58;47.88
53300;BME280;39187;48.476;8.310;2022-07-10T13:18:20;91930.38;;;19.45;47.72
53300;BME280;39187;48.476;8.310;2022-07-10T13:20:48;91935.22;;;19.50;46.37
53300;BME280;39187;48.476;8.310;2022-07-10T13:23:14;91934.28;;;19.71;44.75
53300;BME280;39187;48.476;8.310;2022-07-10T13:25:41;91941.47;;;19.29;44.19
53300;BME280;39187;48.476;8.310;2022-07-10T13:28:08;91941.63;;;19.07;44.03
53300;BME280;39187;48.476;8.310;2022-07-10T13:30:34;91932.53;;;18.64;43.70
53300;BME280;39187;48.476;8.310;2022-07-10T13:33:00;91936.69;;;19.23;43.79
53300;BME280;39187;48.476;8.310;2022-07-10T13:35:30;91933.38;;;19.29;44.17
53300;BME280;39187;48.476;8.310;2022-07-10T13:37:59;91934.41;;;19.40;44.34
53300;BME280;39187;48.476;8.310;2022-07-10T13:40:31;91940.59;;;19.32;44.63